sensor_id;sensor_type;location;lat;lon;timestamp;temperature;humidity
63802;DHT22;49949;43.060;25.624;2022-07-22T00:01:56;21.20;80.20
63802;DHT22;49949;43.060;25.624;2022-07-22T00:04:22;21.20;80.00
63802;DHT22;49949;43.060;25.624;2022-07-22T00:06:47;21.20;80.10
63802;DHT22;49949;43.060;25.624;2022-07-22T00:09:13;21.20;80.00
63802;DHT22;49949;43.060;25.624;2022-07-22T00:11:39;21.10;80.60
63802;DHT22;49949;43.060;25.624;2022-07-22T00:14:05;21.00;80.60
63802;DHT22;49949;43.060;25.624;2022-07-22T00:16:31;20.90;81.30
63802;DHT22;49949;43.060;25.624;2022-07-22T00:18:57;20.90;81.30
63802;DHT22;49949;43.060;25.624;2022-07-22T00:21:23;20.90;81.10
63802;DHT22;49949;43.060;25.624;2022-07-22T00:23:49;20.90;81.30
63802;DHT22;49949;43.060;25.624;2022-07-22T00:26:15;20.90;82.00
63802;DHT22;49949;43.060;25.624;2022-07-22T00:28:41;20.90;81.70
63802;DHT22;49949;43.060;25.624;2022-07-22T00:31:06;21.00;81.60
63802;DHT22;49949;43.060;25.624;2022-07-22T00:33:32;21.00;81.60
63802;DHT22;49949;43.060;25.624;2022-07-22T00:35:58;21.00;84.00
63802;DHT22;49949;43.060;25.624;2022-07-22T00:38:24;20.80;84.10
63802;DHT22;49949;43.060;25.624;2022-07-22T00:40:49;20.80;83.70
63802;DHT22;49949;43.060;25.624;2022-07-22T00:43:15;20.80;83.40
63802;DHT22;49949;43.060;25.624;2022-07-22T00:45:41;20.80;83.00
63802;DHT22;49949;43.060;25.624;2022-07-22T00:48:07;20.80;83.20
63802;DHT22;49949;43.060;25.624;2022-07-22T00:50:33;20.60;83.90
63802;DHT22;49949;43.060;25.624;2022-07-22T00:52:58;20.60;84.60
63802;DHT22;49949;43.060;25.624;2022-07-22T00:55:24;20.60;84.70
63802;DHT22;49949;43.060;25.624;2022-07-22T00:57:50;20.50;86.50
63802;DHT22;49949;43.060;25.624;2022-07-22T01:00:20;20.40;86.30
63802;DHT22;49949;43.060;25.624;2022-07-22T01:02:46;20.30;87.20
63802;DHT22;49949;43.060;25.624;2022-07-22T01:05:12;20.30;87.60
63802;DHT22;49949;43.060;25.624;2022-07-22T01:07:38;20.30;86.50
63802;DHT22;49949;43.060;25.624;2022-07-22T01:10:05;20.40;86.30
63802;DHT22;49949;43.060;25.624;2022-07-22T01:12:31;20.30;88.60
63802;DHT22;49949;43.060;25.624;2022-07-22T01:14:57;20.20;88.90
63802;DHT22;49949;43.060;25.624;2022-07-22T01:17:23;20.20;88.80
63802;DHT22;49949;43.060;25.624;2022-07-22T01:19:49;20.20;89.30
63802;DHT22;49949;43.060;25.624;2022-07-22T01:22:15;20.10;89.80
63802;DHT22;49949;43.060;25.624;2022-07-22T01:24:41;20.00;89.90
63802;DHT22;49949;43.060;25.624;2022-07-22T01:27:07;20.00;90.10
63802;DHT22;49949;43.060;25.624;2022-07-22T01:29:33;19.90;90.70
63802;DHT22;49949;43.060;25.624;2022-07-22T01:31:59;19.90;91.10
63802;DHT22;49949;43.060;25.624;2022-07-22T01:34:25;19.90;91.20
63802;DHT22;49949;43.060;25.624;2022-07-22T01:36:50;19.80;91.60
63802;DHT22;49949;43.060;25.624;2022-07-22T01:39:16;19.70;91.90
63802;DHT22;49949;43.060;25.624;2022-07-22T01:41:43;19.70;92.30
63802;DHT22;49949;43.060;25.624;2022-07-22T01:44:09;19.80;92.50
63802;DHT22;49949;43.060;25.624;2022-07-22T01:46:34;19.70;92.60
63802;DHT22;49949;43.060;25.624;2022-07-22T01:49:00;19.70;93.10
63802;DHT22;49949;43.060;25.624;2022-07-22T01:51:26;19.60;93.50
63802;DHT22;49949;43.060;25.624;2022-07-22T01:53:52;19.50;94.00
63802;DHT22;49949;43.060;25.624;2022-07-22T01:56:18;19.50;94.50
63802;DHT22;49949;43.060;25.624;2022-07-22T01:58:44;19.40;94.90
63802;DHT22;49949;43.060;25.624;2022-07-22T02:01:10;19.40;95.10
63802;DHT22;49949;43.060;25.624;2022-07-22T02:03:36;19.40;95.30
63802;DHT22;49949;43.060;25.624;2022-07-22T02:06:02;19.40;95.40
63802;DHT22;49949;43.060;25.624;2022-07-22T02:08:28;19.30;95.50
63802;DHT22;49949;43.060;25.624;2022-07-22T02:10:54;19.30;96.30
63802;DHT22;49949;43.060;25.624;2022-07-22T02:13:20;19.30;96.20
63802;DHT22;49949;43.060;25.624;2022-07-22T02:15:45;19.20;96.20
63802;DHT22;49949;43.060;25.624;2022-07-22T02:18:16;19.30;96.50
63802;DHT22;49949;43.060;25.624;2022-07-22T02:20:43;19.10;96.80
63802;DHT22;49949;43.060;25.624;2022-07-22T02:23:09;19.00;96.90
63802;DHT22;49949;43.060;25.624;2022-07-22T02:25:36;19.00;97.20
63802;DHT22;49949;43.060;25.624;2022-07-22T02:28:02;19.00;97.90
63802;DHT22;49949;43.060;25.624;2022-07-22T02:30:28;19.00;98.40
63802;DHT22;49949;43.060;25.624;2022-07-22T02:32:54;19.00;97.90
63802;DHT22;49949;43.060;25.624;2022-07-22T02:35:20;19.00;97.20
63802;DHT22;49949;43.060;25.624;2022-07-22T02:37:46;19.00;97.50
63802;DHT22;49949;43.060;25.624;2022-07-22T02:40:12;19.00;97.70
63802;DHT22;49949;43.060;25.624;2022-07-22T02:42:38;18.90;97.70
63802;DHT22;49949;43.060;25.624;2022-07-22T02:45:04;18.90;99.60
63802;DHT22;49949;43.060;25.624;2022-07-22T02:47:30;18.80;98.50
63802;DHT22;49949;43.060;25.624;2022-07-22T02:49:56;18.80;98.60
63802;DHT22;49949;43.060;25.624;2022-07-22T02:52:22;18.70;98.70
63802;DHT22;49949;43.060;25.624;2022-07-22T02:54:48;18.70;99.00
63802;DHT22;49949;43.060;25.624;2022-07-22T02:57:14;18.60;99.10
63802;DHT22;49949;43.060;25.624;2022-07-22T02:59:39;18.60;99.30
63802;DHT22;49949;43.060;25.624;2022-07-22T03:02:05;18.60;99.50
63802;DHT22;49949;43.060;25.624;2022-07-22T03:04:31;18.50;99.90
63802;DHT22;49949;43.060;25.624;2022-07-22T03:06:57;18.50;99.90
63802;DHT22;49949;43.060;25.624;2022-07-22T03:09:22;18.50;99.90
63802;DHT22;49949;43.060;25.624;2022-07-22T03:11:48;18.50;99.90
63802;DHT22;49949;43.060;25.624;2022-07-22T03:14:14;18.50;99.90
63802;DHT22;49949;43.060;25.624;2022-07-22T03:16:41;18.60;99.80
63802;DHT22;49949;43.060;25.624;2022-07-22T03:19:07;18.60;99.90
63802;DHT22;49949;43.060;25.624;2022-07-22T03:21:33;18.60;99.60
63802;DHT22;49949;43.060;25.624;2022-07-22T03:23:58;18.60;99.50
63802;DHT22;49949;43.060;25.624;2022-07-22T03:26:24;18.50;99.70
63802;DHT22;49949;43.060;25.624;2022-07-22T03:28:51;18.60;99.30
63802;DHT22;49949;43.060;25.624;2022-07-22T03:31:17;18.70;98.90
63802;DHT22;49949;43.060;25.624;2022-07-22T03:33:43;18.70;98.80
63802;DHT22;49949;43.060;25.624;2022-07-22T03:36:09;18.70;98.60
63802;DHT22;49949;43.060;25.624;2022-07-22T03:38:35;18.70;99.20
63802;DHT22;49949;43.060;25.624;2022-07-22T03:41:02;18.90;98.80
63802;DHT22;49949;43.060;25.624;2022-07-22T03:43:28;19.10;97.60
63802;DHT22;49949;43.060;25.624;2022-07-22T03:45:54;19.50;99.90
63802;DHT22;49949;43.060;25.624;2022-07-22T03:48:20;19.30;95.70
63802;DHT22;49949;43.060;25.624;2022-07-22T03:50:46;19.80;94.10
63802;DHT22;49949;43.060;25.624;2022-07-22T03:53:11;19.70;93.30
63802;DHT22;49949;43.060;25.624;2022-07-22T03:55:37;20.00;93.60
63802;DHT22;49949;43.060;25.624;2022-07-22T03:58:03;19.90;92.90
63802;DHT22;49949;43.060;25.624;2022-07-22T04:00:29;20.30;91.80
63802;DHT22;49949;43.060;25.624;2022-07-22T04:02:54;20.90;90.50
63802;DHT22;49949;43.060;25.624;2022-07-22T04:05:20;21.00;88.80
63802;DHT22;49949;43.060;25.624;2022-07-22T04:07:46;20.70;87.70
63802;DHT22;49949;43.060;25.624;2022-07-22T04:10:12;21.00;87.20
63802;DHT22;49949;43.060;25.624;2022-07-22T04:12:39;21.00;86.00
63802;DHT22;49949;43.060;25.624;2022-07-22T04:15:06;21.40;85.50
63802;DHT22;49949;43.060;25.624;2022-07-22T04:17:33;21.20;85.50
63802;DHT22;49949;43.060;25.624;2022-07-22T04:19:59;21.80;85.30
63802;DHT22;49949;43.060;25.624;2022-07-22T04:22:26;22.00;83.90
63802;DHT22;49949;43.060;25.624;2022-07-22T04:24:52;22.10;82.50
63802;DHT22;49949;43.060;25.624;2022-07-22T04:27:18;22.20;82.30
63802;DHT22;49949;43.060;25.624;2022-07-22T04:29:44;22.30;81.80
63802;DHT22;49949;43.060;25.624;2022-07-22T04:32:09;22.40;81.60
63802;DHT22;49949;43.060;25.624;2022-07-22T04:34:35;22.60;81.20
63802;DHT22;49949;43.060;25.624;2022-07-22T04:37:01;23.10;81.30
63802;DHT22;49949;43.060;25.624;2022-07-22T04:39:27;23.40;79.90
63802;DHT22;49949;43.060;25.624;2022-07-22T04:41:52;23.60;76.90
63802;DHT22;49949;43.060;25.624;2022-07-22T04:44:18;23.90;76.20
63802;DHT22;49949;43.060;25.624;2022-07-22T04:46:44;23.90;75.30
63802;DHT22;49949;43.060;25.624;2022-07-22T04:49:10;23.90;74.60
63802;DHT22;49949;43.060;25.624;2022-07-22T04:51:35;24.00;75.50
63802;DHT22;49949;43.060;25.624;2022-07-22T04:54:01;24.30;74.10
63802;DHT22;49949;43.060;25.624;2022-07-22T04:56:27;24.70;74.00
63802;DHT22;49949;43.060;25.624;2022-07-22T04:58:53;25.50;71.30
63802;DHT22;49949;43.060;25.624;2022-07-22T05:01:18;25.00;72.00
63802;DHT22;49949;43.060;25.624;2022-07-22T05:03:44;25.30;71.30
63802;DHT22;49949;43.060;25.624;2022-07-22T05:06:10;25.70;70.30
63802;DHT22;49949;43.060;25.624;2022-07-22T05:08:36;25.90;67.40
63802;DHT22;49949;43.060;25.624;2022-07-22T05:11:02;25.70;67.90
63802;DHT22;49949;43.060;25.624;2022-07-22T05:13:27;25.80;68.70
63802;DHT22;49949;43.060;25.624;2022-07-22T05:15:53;26.10;67.70
63802;DHT22;49949;43.060;25.624;2022-07-22T05:18:19;26.30;66.80
63802;DHT22;49949;43.060;25.624;2022-07-22T05:20:45;26.90;64.80
63802;DHT22;49949;43.060;25.624;2022-07-22T05:23:11;26.70;65.10
63802;DHT22;49949;43.060;25.624;2022-07-22T05:25:37;26.90;63.40
63802;DHT22;49949;43.060;25.624;2022-07-22T05:28:03;26.80;63.00
63802;DHT22;49949;43.060;25.624;2022-07-22T05:30:28;27.00;63.20
63802;DHT22;49949;43.060;25.624;2022-07-22T05:32:54;27.00;63.20
63802;DHT22;49949;43.060;25.624;2022-07-22T05:35:20;27.10;63.20
63802;DHT22;49949;43.060;25.624;2022-07-22T05:37:47;27.70;62.00
63802;DHT22;49949;43.060;25.624;2022-07-22T05:40:13;27.10;61.80
63802;DHT22;49949;43.060;25.624;2022-07-22T05:42:38;27.40;62.20
63802;DHT22;49949;43.060;25.624;2022-07-22T05:45:04;27.80;61.90
63802;DHT22;49949;43.060;25.624;2022-07-22T05:47:30;28.20;60.70
63802;DHT22;49949;43.060;25.624;2022-07-22T05:49:56;28.30;60.30
63802;DHT22;49949;43.060;25.624;2022-07-22T05:52:22;28.40;59.90
63802;DHT22;49949;43.060;25.624;2022-07-22T05:54:48;28.60;59.00
63802;DHT22;49949;43.060;25.624;2022-07-22T05:57:14;28.70;57.80
63802;DHT22;49949;43.060;25.624;2022-07-22T05:59:40;28.70;57.80
63802;DHT22;49949;43.060;25.624;2022-07-22T06:02:07;28.70;57.30
63802;DHT22;49949;43.060;25.624;2022-07-22T06:04:33;28.60;58.10
63802;DHT22;49949;43.060;25.624;2022-07-22T06:06:59;28.70;58.70
63802;DHT22;49949;43.060;25.624;2022-07-22T06:09:25;28.90;58.10
63802;DHT22;49949;43.060;25.624;2022-07-22T06:11:51;29.10;58.00
63802;DHT22;49949;43.060;25.624;2022-07-22T06:14:16;29.30;57.00
63802;DHT22;49949;43.060;25.624;2022-07-22T06:16:42;29.50;56.00
63802;DHT22;49949;43.060;25.624;2022-07-22T06:19:08;29.50;55.50
63802;DHT22;49949;43.060;25.624;2022-07-22T06:21:33;29.60;56.30
63802;DHT22;49949;43.060;25.624;2022-07-22T06:23:59;29.70;55.70
63802;DHT22;49949;43.060;25.624;2022-07-22T06:26:25;29.90;54.70
63802;DHT22;49949;43.060;25.624;2022-07-22T06:28:51;30.00;53.30
63802;DHT22;49949;43.060;25.624;2022-07-22T06:31:16;30.20;53.80
63802;DHT22;49949;43.060;25.624;2022-07-22T06:33:42;30.50;51.80
63802;DHT22;49949;43.060;25.624;2022-07-22T06:36:08;30.50;51.00
63802;DHT22;49949;43.060;25.624;2022-07-22T06:38:34;30.50;50.70
63802;DHT22;49949;43.060;25.624;2022-07-22T06:41:00;30.50;51.50
63802;DHT22;49949;43.060;25.624;2022-07-22T06:43:27;30.80;49.50
63802;DHT22;49949;43.060;25.624;2022-07-22T06:45:54;30.70;49.70
63802;DHT22;49949;43.060;25.624;2022-07-22T06:48:20;30.60;50.30
63802;DHT22;49949;43.060;25.624;2022-07-22T06:50:46;30.70;50.10
63802;DHT22;49949;43.060;25.624;2022-07-22T06:53:11;31.00;50.30
63802;DHT22;49949;43.060;25.624;2022-07-22T06:55:37;31.00;48.90
63802;DHT22;49949;43.060;25.624;2022-07-22T06:58:03;31.10;49.00
63802;DHT22;49949;43.060;25.624;2022-07-22T07:00:29;30.80;49.20
63802;DHT22;49949;43.060;25.624;2022-07-22T07:02:58;30.50;50.70
63802;DHT22;49949;43.060;25.624;2022-07-22T07:05:25;30.40;51.70
63802;DHT22;49949;43.060;25.624;2022-07-22T07:07:52;30.70;50.50
63802;DHT22;49949;43.060;25.624;2022-07-22T07:10:18;31.00;50.30
63802;DHT22;49949;43.060;25.624;2022-07-22T07:12:44;31.20;49.80
63802;DHT22;49949;43.060;25.624;2022-07-22T07:15:10;31.50;49.00
63802;DHT22;49949;43.060;25.624;2022-07-22T07:17:37;31.70;47.70
63802;DHT22;49949;43.060;25.624;2022-07-22T07:20:04;31.90;48.00
63802;DHT22;49949;43.060;25.624;2022-07-22T07:22:30;32.30;47.40
63802;DHT22;49949;43.060;25.624;2022-07-22T07:24:56;32.50;46.30
63802;DHT22;49949;43.060;25.624;2022-07-22T07:27:21;32.70;44.90
63802;DHT22;49949;43.060;25.624;2022-07-22T07:29:47;32.50;44.30
63802;DHT22;49949;43.060;25.624;2022-07-22T07:32:13;32.00;46.00
63802;DHT22;49949;43.060;25.624;2022-07-22T07:34:38;32.20;45.50
63802;DHT22;49949;43.060;25.624;2022-07-22T07:37:04;32.50;44.00
63802;DHT22;49949;43.060;25.624;2022-07-22T07:39:30;32.70;43.80
63802;DHT22;49949;43.060;25.624;2022-07-22T07:41:55;32.80;43.60
63802;DHT22;49949;43.060;25.624;2022-07-22T07:44:21;32.90;43.00
63802;DHT22;49949;43.060;25.624;2022-07-22T07:46:47;33.00;43.80
63802;DHT22;49949;43.060;25.624;2022-07-22T07:49:12;33.20;43.30
63802;DHT22;49949;43.060;25.624;2022-07-22T07:51:38;33.50;42.20
63802;DHT22;49949;43.060;25.624;2022-07-22T07:54:04;33.60;41.60
63802;DHT22;49949;43.060;25.624;2022-07-22T07:56:30;33.50;42.00
63802;DHT22;49949;43.060;25.624;2022-07-22T07:58:55;33.50;41.90
63802;DHT22;49949;43.060;25.624;2022-07-22T08:01:21;33.70;42.20
63802;DHT22;49949;43.060;25.624;2022-07-22T08:03:48;33.40;43.00
63802;DHT22;49949;43.060;25.624;2022-07-22T08:06:14;33.60;42.80
63802;DHT22;49949;43.060;25.624;2022-07-22T08:08:40;33.50;42.70
63802;DHT22;49949;43.060;25.624;2022-07-22T08:11:05;33.40;42.40
63802;DHT22;49949;43.060;25.624;2022-07-22T08:13:31;33.30;42.40
63802;DHT22;49949;43.060;25.624;2022-07-22T08:15:57;33.00;43.60
63802;DHT22;49949;43.060;25.624;2022-07-22T08:18:23;33.20;44.00
63802;DHT22;49949;43.060;25.624;2022-07-22T08:20:48;33.40;42.50
63802;DHT22;49949;43.060;25.624;2022-07-22T08:23:14;33.00;42.70
63802;DHT22;49949;43.060;25.624;2022-07-22T08:25:40;32.90;43.10
63802;DHT22;49949;43.060;25.624;2022-07-22T08:28:05;32.60;44.10
63802;DHT22;49949;43.060;25.624;2022-07-22T08:30:31;32.90;43.90
63802;DHT22;49949;43.060;25.624;2022-07-22T08:32:57;33.00;43.20
63802;DHT22;49949;43.060;25.624;2022-07-22T08:35:23;32.80;42.90
63802;DHT22;49949;43.060;25.624;2022-07-22T08:37:49;33.00;43.50
63802;DHT22;49949;43.060;25.624;2022-07-22T08:40:16;33.20;42.90
63802;DHT22;49949;43.060;25.624;2022-07-22T08:42:46;33.10;43.20
63802;DHT22;49949;43.060;25.624;2022-07-22T08:45:12;32.50;43.60
63802;DHT22;49949;43.060;25.624;2022-07-22T08:47:38;32.50;44.70
63802;DHT22;49949;43.060;25.624;2022-07-22T08:50:04;33.00;43.50
63802;DHT22;49949;43.060;25.624;2022-07-22T08:52:30;32.60;43.20
63802;DHT22;49949;43.060;25.624;2022-07-22T08:54:56;32.20;45.10
63802;DHT22;49949;43.060;25.624;2022-07-22T08:57:22;32.70;44.00
63802;DHT22;49949;43.060;25.624;2022-07-22T08:59:58;33.20;42.00
63802;DHT22;49949;43.060;25.624;2022-07-22T09:02:25;33.00;42.40
63802;DHT22;49949;43.060;25.624;2022-07-22T09:05:00;32.90;42.80
63802;DHT22;49949;43.060;25.624;2022-07-22T09:07:29;32.60;42.70
63802;DHT22;49949;43.060;25.624;2022-07-22T09:09:56;32.70;43.10
63802;DHT22;49949;43.060;25.624;2022-07-22T09:12:22;33.00;42.00
63802;DHT22;49949;43.060;25.624;2022-07-22T09:14:52;33.30;41.20
63802;DHT22;49949;43.060;25.624;2022-07-22T09:17:38;33.70;40.40
63802;DHT22;49949;43.060;25.624;2022-07-22T09:20:16;33.20;40.70
63802;DHT22;49949;43.060;25.624;2022-07-22T09:22:46;33.60;39.10
63802;DHT22;49949;43.060;25.624;2022-07-22T09:25:29;33.40;40.40
63802;DHT22;49949;43.060;25.624;2022-07-22T09:30:55;33.20;39.80
63802;DHT22;49949;43.060;25.624;2022-07-22T09:33:22;32.80;39.80
63802;DHT22;49949;43.060;25.624;2022-07-22T09:35:49;33.50;39.60
63802;DHT22;49949;43.060;25.624;2022-07-22T09:38:16;34.20;38.70
63802;DHT22;49949;43.060;25.624;2022-07-22T09:40:44;34.30;37.70
63802;DHT22;49949;43.060;25.624;2022-07-22T09:43:13;34.50;36.40
63802;DHT22;49949;43.060;25.624;2022-07-22T09:45:50;34.50;36.10
63802;DHT22;49949;43.060;25.624;2022-07-22T09:48:18;34.80;35.20
63802;DHT22;49949;43.060;25.624;2022-07-22T09:50:44;35.10;35.50
63802;DHT22;49949;43.060;25.624;2022-07-22T09:53:10;35.20;34.90
63802;DHT22;49949;43.060;25.624;2022-07-22T09:55:38;35.60;33.30
63802;DHT22;49949;43.060;25.624;2022-07-22T09:58:05;35.20;33.20
63802;DHT22;49949;43.060;25.624;2022-07-22T10:00:34;35.50;31.80
63802;DHT22;49949;43.060;25.624;2022-07-22T10:03:02;35.80;31.20
63802;DHT22;49949;43.060;25.624;2022-07-22T10:05:30;36.30;30.60
63802;DHT22;49949;43.060;25.624;2022-07-22T10:07:57;36.60;29.50
63802;DHT22;49949;43.060;25.624;2022-07-22T10:10:25;35.90;30.30
63802;DHT22;49949;43.060;25.624;2022-07-22T10:12:54;35.80;29.00
63802;DHT22;49949;43.060;25.624;2022-07-22T10:15:21;35.70;29.10
63802;DHT22;49949;43.060;25.624;2022-07-22T10:18:14;35.40;29.60
63802;DHT22;49949;43.060;25.624;2022-07-22T10:20:41;35.70;29.80
63802;DHT22;49949;43.060;25.624;2022-07-22T10:23:08;36.00;29.50
63802;DHT22;49949;43.060;25.624;2022-07-22T10:25:53;36.40;28.30
63802;DHT22;49949;43.060;25.624;2022-07-22T10:33:40;36.40;27.70
63802;DHT22;49949;43.060;25.624;2022-07-22T10:36:06;36.20;27.20
63802;DHT22;49949;43.060;25.624;2022-07-22T10:38:33;36.20;28.10
63802;DHT22;49949;43.060;25.624;2022-07-22T10:41:04;35.80;27.30
63802;DHT22;49949;43.060;25.624;2022-07-22T10:46:07;35.80;26.90
63802;DHT22;49949;43.060;25.624;2022-07-22T10:51:21;35.50;28.00
63802;DHT22;49949;43.060;25.624;2022-07-22T10:53:54;35.00;29.50
63802;DHT22;49949;43.060;25.624;2022-07-22T10:59:12;34.70;29.70
63802;DHT22;49949;43.060;25.624;2022-07-22T11:01:46;34.70;29.80
63802;DHT22;49949;43.060;25.624;2022-07-22T11:04:23;34.70;30.10
63802;DHT22;49949;43.060;25.624;2022-07-22T11:06:51;34.70;30.80
63802;DHT22;49949;43.060;25.624;2022-07-22T11:09:22;34.30;30.90
63802;DHT22;49949;43.060;25.624;2022-07-22T11:14:26;34.50;30.30
63802;DHT22;49949;43.060;25.624;2022-07-22T11:17:00;34.60;29.80
63802;DHT22;49949;43.060;25.624;2022-07-22T11:19:30;34.90;30.00
63802;DHT22;49949;43.060;25.624;2022-07-22T11:22:00;35.30;28.80
63802;DHT22;49949;43.060;25.624;2022-07-22T11:24:28;35.00;28.30
63802;DHT22;49949;43.060;25.624;2022-07-22T11:26:56;34.80;27.10
63802;DHT22;49949;43.060;25.624;2022-07-22T11:31:53;34.40;28.10
63802;DHT22;49949;43.060;25.624;2022-07-22T11:34:19;34.30;27.10
63802;DHT22;49949;43.060;25.624;2022-07-22T11:36:48;34.30;27.00
63802;DHT22;49949;43.060;25.624;2022-07-22T11:39:19;34.40;27.50
63802;DHT22;49949;43.060;25.624;2022-07-22T11:41:45;34.50;26.40
63802;DHT22;49949;43.060;25.624;2022-07-22T11:44:11;34.40;25.90
63802;DHT22;49949;43.060;25.624;2022-07-22T11:46:41;34.30;25.30
63802;DHT22;49949;43.060;25.624;2022-07-22T11:49:08;34.50;25.90
63802;DHT22;49949;43.060;25.624;2022-07-22T11:51:37;34.50;24.70
63802;DHT22;49949;43.060;25.624;2022-07-22T11:54:03;34.50;25.70
63802;DHT22;49949;43.060;25.624;2022-07-22T11:56:30;34.70;25.10
63802;DHT22;49949;43.060;25.624;2022-07-22T11:58:56;35.00;25.40
63802;DHT22;49949;43.060;25.624;2022-07-22T12:01:28;35.20;23.70
63802;DHT22;49949;43.060;25.624;2022-07-22T12:04:06;35.20;23.00
63802;DHT22;49949;43.060;25.624;2022-07-22T12:06:33;35.20;23.70
63802;DHT22;49949;43.060;25.624;2022-07-22T12:09:14;34.80;22.50
63802;DHT22;49949;43.060;25.624;2022-07-22T12:11:43;35.10;23.90
63802;DHT22;49949;43.060;25.624;2022-07-22T12:14:12;35.30;22.80
63802;DHT22;49949;43.060;25.624;2022-07-22T12:16:38;35.40;20.70
63802;DHT22;49949;43.060;25.624;2022-07-22T12:19:07;35.50;21.70
63802;DHT22;49949;43.060;25.624;2022-07-22T12:21:36;35.00;22.20
63802;DHT22;49949;43.060;25.624;2022-07-22T12:24:07;35.10;22.50
63802;DHT22;49949;43.060;25.624;2022-07-22T12:26:53;35.50;22.00
63802;DHT22;49949;43.060;25.624;2022-07-22T12:32:01;35.80;22.00
63802;DHT22;49949;43.060;25.624;2022-07-22T12:34:34;35.80;20.50
63802;DHT22;49949;43.060;25.624;2022-07-22T12:37:21;35.50;21.30
63802;DHT22;49949;43.060;25.624;2022-07-22T12:40:19;35.70;20.80
63802;DHT22;49949;43.060;25.624;2022-07-22T12:43:02;35.40;21.30
63802;DHT22;49949;43.060;25.624;2022-07-22T12:45:30;35.20;21.20
63802;DHT22;49949;43.060;25.624;2022-07-22T12:50:36;35.10;22.00
63802;DHT22;49949;43.060;25.624;2022-07-22T12:55:39;35.50;21.80
63802;DHT22;49949;43.060;25.624;2022-07-22T12:58:06;35.70;21.30
63802;DHT22;49949;43.060;25.624;2022-07-22T13:00:35;35.70;21.30
63802;DHT22;49949;43.060;25.624;2022-07-22T13:03:01;36.00;20.80
63802;DHT22;49949;43.060;25.624;2022-07-22T13:05:27;35.90;20.50
63802;DHT22;49949;43.060;25.624;2022-07-22T13:07:54;35.80;20.70
63802;DHT22;49949;43.060;25.624;2022-07-22T13:10:24;35.70;20.00
63802;DHT22;49949;43.060;25.624;2022-07-22T13:12:50;35.60;21.00
63802;DHT22;49949;43.060;25.624;2022-07-22T13:15:16;35.80;21.50
63802;DHT22;49949;43.060;25.624;2022-07-22T13:17:42;35.70;20.00
63802;DHT22;49949;43.060;25.624;2022-07-22T13:20:09;35.50;20.70
63802;DHT22;49949;43.060;25.624;2022-07-22T13:22:36;35.50;21.90
63802;DHT22;49949;43.060;25.624;2022-07-22T13:25:02;35.40;22.00
63802;DHT22;49949;43.060;25.624;2022-07-22T13:27:28;35.40;21.70
63802;DHT22;49949;43.060;25.624;2022-07-22T13:29:54;35.40;22.40
63802;DHT22;49949;43.060;25.624;2022-07-22T13:32:20;35.40;21.60
63802;DHT22;49949;43.060;25.624;2022-07-22T13:34:45;35.20;21.20
63802;DHT22;49949;43.060;25.624;2022-07-22T13:37:11;35.10;21.70
63802;DHT22;49949;43.060;25.624;2022-07-22T13:39:37;35.30;21.50
63802;DHT22;49949;43.060;25.624;2022-07-22T13:42:03;35.10;20.90
63802;DHT22;49949;43.060;25.624;2022-07-22T13:44:29;35.20;21.50
63802;DHT22;49949;43.060;25.624;2022-07-22T13:46:58;35.40;21.70
63802;DHT22;49949;43.060;25.624;2022-07-22T13:49:25;35.40;20.30
63802;DHT22;49949;43.060;25.624;2022-07-22T13:51:51;35.10;21.00
63802;DHT22;49949;43.060;25.624;2022-07-22T13:54:20;35.10;21.20
63802;DHT22;49949;43.060;25.624;2022-07-22T13:56:46;35.10;21.00
63802;DHT22;49949;43.060;25.624;2022-07-22T13:59:14;35.00;20.70
63802;DHT22;49949;43.060;25.624;2022-07-22T14:01:40;34.80;21.10
63802;DHT22;49949;43.060;25.624;2022-07-22T14:04:06;34.80;20.90
63802;DHT22;49949;43.060;25.624;2022-07-22T14:06:32;34.90;21.20
63802;DHT22;49949;43.060;25.624;2022-07-22T14:08:59;34.80;20.70
63802;DHT22;49949;43.060;25.624;2022-07-22T14:11:25;35.00;22.20
63802;DHT22;49949;43.060;25.624;2022-07-22T14:13:51;35.00;20.80
63802;DHT22;49949;43.060;25.624;2022-07-22T14:16:16;34.90;20.80
63802;DHT22;49949;43.060;25.624;2022-07-22T14:19:05;34.90;20.80
63802;DHT22;49949;43.060;25.624;2022-07-22T14:21:34;34.80;21.00
63802;DHT22;49949;43.060;25.624;2022-07-22T14:24:01;34.60;21.00
63802;DHT22;49949;43.060;25.624;2022-07-22T14:26:28;34.60;21.30
63802;DHT22;49949;43.060;25.624;2022-07-22T14:28:54;34.60;21.80
63802;DHT22;49949;43.060;25.624;2022-07-22T14:31:20;34.80;21.20
63802;DHT22;49949;43.060;25.624;2022-07-22T14:33:47;34.80;21.50
63802;DHT22;49949;43.060;25.624;2022-07-22T14:36:13;35.00;22.70
63802;DHT22;49949;43.060;25.624;2022-07-22T14:38:39;35.00;21.40
63802;DHT22;49949;43.060;25.624;2022-07-22T14:41:04;34.70;21.00
63802;DHT22;49949;43.060;25.624;2022-07-22T14:43:30;34.80;22.10
63802;DHT22;49949;43.060;25.624;2022-07-22T14:45:56;35.20;21.80
63802;DHT22;49949;43.060;25.624;2022-07-22T14:48:22;35.40;21.20
63802;DHT22;49949;43.060;25.624;2022-07-22T14:50:47;35.10;22.00
63802;DHT22;49949;43.060;25.624;2022-07-22T14:53:13;35.30;21.60
63802;DHT22;49949;43.060;25.624;2022-07-22T14:55:39;35.40;21.30
63802;DHT22;49949;43.060;25.624;2022-07-22T14:58:06;35.20;20.70
63802;DHT22;49949;43.060;25.624;2022-07-22T15:00:31;35.10;21.50
63802;DHT22;49949;43.060;25.624;2022-07-22T15:02:57;35.10;21.70
63802;DHT22;49949;43.060;25.624;2022-07-22T15:05:23;35.30;21.20
63802;DHT22;49949;43.060;25.624;2022-07-22T15:07:49;35.50;20.20
63802;DHT22;49949;43.060;25.624;2022-07-22T15:10:15;35.70;20.70
63802;DHT22;49949;43.060;25.624;2022-07-22T15:12:41;35.70;19.60
63802;DHT22;49949;43.060;25.624;2022-07-22T15:15:07;35.30;19.70
63802;DHT22;49949;43.060;25.624;2022-07-22T15:17:35;35.40;20.40
63802;DHT22;49949;43.060;25.624;2022-07-22T15:20:01;35.40;20.80
63802;DHT22;49949;43.060;25.624;2022-07-22T15:22:27;35.50;19.40
63802;DHT22;49949;43.060;25.624;2022-07-22T15:24:53;35.40;20.40
63802;DHT22;49949;43.060;25.624;2022-07-22T15:27:19;35.40;20.50
63802;DHT22;49949;43.060;25.624;2022-07-22T15:29:45;35.50;21.40
63802;DHT22;49949;43.060;25.624;2022-07-22T15:32:16;35.70;20.20
63802;DHT22;49949;43.060;25.624;2022-07-22T15:34:43;35.70;19.30
63802;DHT22;49949;43.060;25.624;2022-07-22T15:37:09;35.70;19.70
63802;DHT22;49949;43.060;25.624;2022-07-22T15:39:35;35.80;20.10
63802;DHT22;49949;43.060;25.624;2022-07-22T15:42:01;35.60;19.90
63802;DHT22;49949;43.060;25.624;2022-07-22T15:44:26;35.70;20.30